Time;durP1;ratioP1;P1;durP2;ratioP2;P2;SDS_P1;SDS_P2;PMS_P1;PMS_P2;Temp;Humidity;BMP_temperature;BMP_pressure;BME280_temperature;BME280_humidity;BME280_pressure;Samples;Min_cycle;Max_cycle;Signal;HPM_P1;HPM_P2
2020/12/21 00:01:18;;;;;;;48.87;24.25;;;;;;;3.74;82.68;101345.41;1753690;80;21116;-68
2020/12/21 00:03:44;;;;;;;44.50;24.02;;;;;;;3.79;82.75;101339.46;1770698;78;21139;-67
2020/12/21 00:06:12;;;;;;;45.38;23.77;;;;;;;3.79;82.59;101344.69;1802059;78;21173;-69
2020/12/21 00:08:38;;;;;;;46.20;24.50;;;;;;;3.86;82.51;101346.05;1800969;78;21198;-69
2020/12/21 00:11:03;;;;;;;44.27;23.27;;;;;;;3.82;82.39;101340.60;1788006;79;27514;-67
2020/12/21 00:13:30;;;;;;;43.75;22.52;;;;;;;3.87;82.07;101342.97;1787606;78;26587;-67
2020/12/21 00:15:56;;;;;;;38.73;22.58;;;;;;;3.80;81.95;101339.85;1787531;80;21268;-67
2020/12/21 00:18:22;;;;;;;44.55;22.20;;;;;;;3.68;82.04;101335.28;1787950;80;21509;-67
2020/12/21 00:20:47;;;;;;;40.12;22.62;;;;;;;3.72;82.20;101331.59;1787638;80;21134;-67
2020/12/21 00:23:13;;;;;;;43.38;23.22;;;;;;;3.76;82.11;101331.82;1788049;80;28320;-67
2020/12/21 00:25:39;;;;;;;41.92;21.82;;;;;;;3.71;82.20;101332.51;1788137;80;27174;-67
2020/12/21 00:28:05;;;;;;;40.85;21.25;;;;;;;3.71;82.40;101324.67;1787993;80;22139;-67
2020/12/21 00:30:31;;;;;;;45.30;23.25;;;;;;;3.76;82.46;101327.91;1788133;80;21156;-68
2020/12/21 00:32:57;;;;;;;48.77;22.93;;;;;;;3.70;82.50;101328.23;1787958;80;21681;-67
2020/12/21 00:35:22;;;;;;;44.73;23.35;;;;;;;3.69;82.78;101330.45;1787978;80;28251;-68
2020/12/21 00:37:48;;;;;;;45.08;23.90;;;;;;;3.76;82.72;101334.44;1788179;80;27289;-68
2020/12/21 00:40:14;;;;;;;46.05;24.18;;;;;;;3.78;82.67;101337.80;1788114;80;22221;-67
2020/12/21 00:42:40;;;;;;;47.90;23.40;;;;;;;3.79;82.74;101336.84;1787999;80;26337;-67
2020/12/21 00:45:05;;;;;;;44.60;24.80;;;;;;;3.75;82.67;101328.81;1788247;80;24616;-67
2020/12/21 00:47:34;;;;;;;45.55;23.80;;;;;;;3.76;82.72;101330.52;1788083;80;28396;-67
2020/12/21 00:50:00;;;;;;;41.02;22.62;;;;;;;3.84;82.56;101328.31;1788084;79;21524;-67
2020/12/21 00:52:25;;;;;;;41.65;23.20;;;;;;;3.80;82.55;101328.56;1775169;79;22084;-67
2020/12/21 00:54:51;;;;;;;49.40;25.45;;;;;;;3.78;82.65;101327.34;1771331;81;26914;-67
2020/12/21 00:57:17;;;;;;;45.77;24.07;;;;;;;3.78;82.81;101329.48;1784215;79;23680;-67
2020/12/21 00:59:43;;;;;;;44.70;21.95;;;;;;;3.72;82.82;101327.67;1778549;79;28331;-66
2020/12/21 01:02:08;;;;;;;43.42;22.82;;;;;;;3.74;82.81;101324.51;1788574;79;26538;-68
2020/12/21 01:04:34;;;;;;;41.48;21.65;;;;;;;3.76;82.75;101329.20;1773921;80;21866;-67
2020/12/21 01:07:00;;;;;;;41.68;21.33;;;;;;;3.84;82.62;101327.02;1778906;80;25897;-67
2020/12/21 01:09:25;;;;;;;44.83;21.93;;;;;;;3.79;82.51;101327.70;1778848;79;23060;-67
2020/12/21 01:11:54;;;;;;;39.00;21.65;;;;;;;3.81;82.47;101324.56;1797111;79;28272;-67
2020/12/21 01:14:20;;;;;;;38.55;20.80;;;;;;;3.70;82.55;101299.50;1803144;79;21577;-67
2020/12/21 01:16:46;;;;;;;36.00;20.68;;;;;;;3.84;82.41;101313.95;1802864;79;21608;-67
2020/12/21 01:19:11;;;;;;;38.45;19.57;;;;;;;3.94;82.58;101320.33;1803172;79;26069;-68
2020/12/21 01:21:37;;;;;;;36.80;20.30;;;;;;;4.04;82.25;101311.55;1802968;79;23702;-67
2020/12/21 01:24:03;;;;;;;37.45;19.85;;;;;;;4.03;81.93;101314.24;1803081;79;28174;-67
2020/12/21 01:26:29;;;;;;;34.75;18.73;;;;;;;4.02;81.39;101311.23;1803301;79;26558;-67
2020/12/21 01:28:56;;;;;;;36.95;19.52;;;;;;;4.05;81.27;101309.29;1803122;79;21846;-67
2020/12/21 01:31:22;;;;;;;35.17;19.02;;;;;;;4.03;81.44;101302.48;1803318;78;21205;-67
2020/12/21 01:33:49;;;;;;;35.85;19.62;;;;;;;4.04;81.33;101306.77;1803239;79;24143;-67
2020/12/21 01:36:17;;;;;;;37.17;19.45;;;;;;;4.06;81.47;101306.23;1803490;78;26626;-67
2020/12/21 01:38:43;;;;;;;34.03;19.02;;;;;;;4.06;81.32;101303.63;1803486;78;21152;-67
2020/12/21 01:41:08;;;;;;;36.40;19.45;;;;;;;4.06;81.32;101306.23;1803162;78;21197;-67
2020/12/21 01:43:34;;;;;;;33.83;18.67;;;;;;;4.08;81.38;101301.75;1803115;79;25591;-68
2020/12/21 01:46:15;;;;;;;33.00;19.27;;;;;;;4.12;81.23;101307.20;1803357;79;23553;-68
2020/12/21 01:48:42;;;;;;;33.53;18.73;;;;;;;4.07;81.22;101302.67;1803406;79;21602;-68
2020/12/21 01:51:07;;;;;;;35.58;18.05;;;;;;;4.08;81.41;101303.06;1805204;78;21138;-67
2020/12/21 01:53:35;;;;;;;33.90;19.77;;;;;;;4.09;81.43;101297.75;1817493;78;21741;-68
2020/12/21 01:56:03;;;;;;;39.75;20.37;;;;;;;4.10;81.45;101307.73;1820667;78;21696;-67
2020/12/21 01:58:29;;;;;;;33.90;19.32;;;;;;;4.08;81.44;101304.36;1820524;78;21199;-67
2020/12/21 02:00:55;;;;;;;39.58;20.40;;;;;;;4.12;81.43;101301.50;1820596;78;21112;-68
2020/12/21 02:03:21;;;;;;;31.85;19.25;;;;;;;4.16;81.25;101300.02;1820555;78;27348;-67
2020/12/21 02:05:46;;;;;;;35.00;19.33;;;;;;;4.12;81.26;101300.66;1796977;78;21592;-68
2020/12/21 02:08:12;;;;;;;37.03;20.30;;;;;;;4.17;81.18;101295.17;1788254;80;26822;-67
2020/12/21 02:10:38;;;;;;;36.63;20.53;;;;;;;4.17;81.24;101302.55;1788219;80;25701;-67
2020/12/21 02:13:04;;;;;;;36.83;21.20;;;;;;;4.21;81.10;101301.90;1788326;80;28148;-68
2020/12/21 02:15:29;;;;;;;36.08;19.95;;;;;;;4.18;81.10;101302.07;1788340;80;26673;-68
2020/12/21 02:17:55;;;;;;;38.75;20.52;;;;;;;4.18;81.24;101299.02;1790711;78;21845;-68
2020/12/21 02:20:28;;;;;;;33.33;19.70;;;;;;;4.21;81.12;101293.61;1787966;80;27126;-67
2020/12/21 02:22:54;;;;;;;38.00;19.67;;;;;;;4.21;80.98;101294.92;1788135;80;21123;-68
2020/12/21 02:25:19;;;;;;;35.70;20.25;;;;;;;4.20;81.20;101295.00;1788140;80;28384;-67
2020/12/21 02:27:45;;;;;;;36.53;19.92;;;;;;;4.22;81.07;101286.12;1788230;80;27073;-67
2020/12/21 02:30:11;;;;;;;35.90;19.75;;;;;;;4.22;81.06;101277.45;1788143;80;22217;-67
2020/12/21 02:32:37;;;;;;;35.38;20.23;;;;;;;4.20;81.04;101279.31;1788214;80;21596;-67
2020/12/21 02:35:03;;;;;;;36.20;20.67;;;;;;;4.13;81.35;101281.41;1788154;80;23153;-67
2020/12/21 02:37:29;;;;;;;39.10;19.85;;;;;;;4.07;81.62;101271.30;1788185;80;28221;-67
2020/12/21 02:39:54;;;;;;;36.70;20.80;;;;;;;4.00;81.81;101268.67;1787920;80;26875;-67
2020/12/21 02:42:20;;;;;;;36.23;19.67;;;;;;;3.92;82.08;101277.77;1788203;80;21410;-67
2020/12/21 02:44:46;;;;;;;41.00;21.15;;;;;;;3.93;82.34;101274.25;1788080;80;26628;-67
2020/12/21 02:47:12;;;;;;;36.45;20.08;;;;;;;3.90;82.30;101274.41;1788148;80;23646;-67
2020/12/21 02:49:37;;;;;;;39.33;19.92;;;;;;;4.00;82.14;101271.29;1819398;78;28308;-67
2020/12/21 02:52:03;;;;;;;35.98;19.77;;;;;;;4.04;81.95;101268.42;1814217;78;26819;-68
2020/12/21 02:54:29;;;;;;;38.15;19.52;;;;;;;4.04;81.73;101264.50;1808563;79;21665;-67
2020/12/21 02:56:55;;;;;;;31.97;19.17;;;;;;;4.10;81.67;101267.21;1800908;79;26905;-67
2020/12/21 02:59:20;;;;;;;40.13;20.63;;;;;;;4.13;81.52;101260.06;1794198;80;24625;-67
2020/12/21 03:01:47;;;;;;;33.08;19.07;;;;;;;4.05;81.50;101262.72;1794307;79;28193;-67
2020/12/21 03:04:13;;;;;;;35.50;20.08;;;;;;;4.00;81.59;101260.84;1789262;80;21096;-67
2020/12/21 03:06:38;;;;;;;34.80;19.55;;;;;;;4.06;81.57;101269.64;1780849;79;21548;-66
2020/12/21 03:09:04;;;;;;;39.30;20.10;;;;;;;3.94;81.56;101275.91;1805980;79;27051;-67
2020/12/21 03:11:30;;;;;;;38.97;20.97;;;;;;;4.00;81.76;101271.29;1776289;80;24600;-67
2020/12/21 03:13:56;;;;;;;37.05;20.40;;;;;;;4.07;81.67;101277.39;1776169;80;28654;-67
2020/12/21 03:16:23;;;;;;;39.95;21.93;;;;;;;4.13;81.62;101282.72;1776332;80;21164;-67
2020/12/21 03:18:50;;;;;;;38.25;20.75;;;;;;;4.15;81.40;101288.73;1777026;80;21183;-67
2020/12/21 03:21:16;;;;;;;39.03;20.90;;;;;;;4.18;81.31;101274.17;1777090;79;26212;-67
2020/12/21 03:23:43;;;;;;;34.83;20.67;;;;;;;4.22;81.20;101273.05;1776707;79;25709;-67
2020/12/21 03:26:09;;;;;;;39.60;20.87;;;;;;;4.15;81.22;101271.73;1777041;80;21163;-67
2020/12/21 03:28:34;;;;;;;34.80;20.12;;;;;;;4.08;81.38;101275.61;1776696;80;26719;-67
2020/12/21 03:31:00;;;;;;;37.35;19.95;;;;;;;4.14;81.34;101270.04;1776807;80;22288;-67
2020/12/21 03:33:26;;;;;;;36.55;20.20;;;;;;;4.13;81.30;101268.34;1776714;79;26960;-67
2020/12/21 03:35:52;;;;;;;35.45;20.00;;;;;;;4.13;81.28;101265.29;1776861;79;21108;-67
2020/12/21 03:38:18;;;;;;;38.40;20.48;;;;;;;4.07;81.33;101263.46;1776539;80;28771;-67
2020/12/21 03:40:43;;;;;;;39.27;20.25;;;;;;;3.91;81.78;101265.62;1776376;80;27065;-67
2020/12/21 03:43:09;;;;;;;33.78;20.15;;;;;;;3.98;81.83;101267.89;1805802;79;22088;-68
2020/12/21 03:45:35;;;;;;;39.18;20.45;;;;;;;3.91;81.94;101265.62;1808660;79;25356;-67
2020/12/21 03:48:01;;;;;;;34.70;20.30;;;;;;;3.85;82.22;101264.66;1808712;79;23572;-67
2020/12/21 03:50:27;;;;;;;39.40;21.10;;;;;;;3.82;82.75;101266.13;1808630;79;28225;-67
2020/12/21 03:52:52;;;;;;;37.98;19.98;;;;;;;3.75;82.97;101265.64;1808500;78;26704;-67
2020/12/21 03:55:18;;;;;;;40.40;21.63;;;;;;;3.67;83.38;101264.40;1808601;79;22747;-67
2020/12/21 03:57:44;;;;;;;40.70;22.80;;;;;;;3.69;83.43;101270.38;1808714;78;26817;-67
2020/12/21 04:00:10;;;;;;;41.13;21.50;;;;;;;3.65;83.72;101267.53;1808746;79;24569;-67
2020/12/21 04:02:37;;;;;;;43.20;21.40;;;;;;;3.65;83.44;101259.70;1808518;79;28289;-67
2020/12/21 04:05:06;;;;;;;;;;;;;;;3.64;83.54;101259.34;1811536;79;21561;-67
2020/12/21 04:07:34;;;;;;;41.53;20.75;;;;;;;3.67;83.62;101258.70;1808472;79;22142;-67
2020/12/21 04:09:59;;;;;;;46.18;21.40;;;;;;;3.73;83.47;101254.44;1808657;79;21146;-67
2020/12/21 04:12:25;;;;;;;44.93;22.25;;;;;;;3.77;83.38;101257.72;1808738;79;23495;-67
2020/12/21 04:14:51;;;;;;;43.75;23.02;;;;;;;3.76;83.33;101254.75;1808582;79;28625;-67
2020/12/21 04:17:16;;;;;;;39.48;22.45;;;;;;;3.73;83.44;101252.30;1808620;79;26703;-66
2020/12/21 04:19:42;;;;;;;47.25;22.77;;;;;;;3.55;83.81;101254.98;1808578;79;22183;-67
2020/12/21 04:22:08;;;;;;;43.98;24.35;;;;;;;3.66;83.76;101250.95;1799239;78;26925;-67
2020/12/21 04:24:33;;;;;;;45.53;24.30;;;;;;;3.77;83.51;101251.19;1782376;80;23700;-66
2020/12/21 04:26:59;;;;;;;45.10;24.30;;;;;;;3.75;83.47;101250.44;1782514;80;28258;-67
2020/12/21 04:29:25;;;;;;;44.00;23.45;;;;;;;3.73;83.53;101254.92;1782598;80;27066;-67
2020/12/21 04:31:55;;;;;;;46.98;25.05;;;;;;;3.76;83.46;101248.22;1782605;79;21841;-67
2020/12/21 04:34:25;;;;;;;43.92;23.90;;;;;;;3.78;83.44;101248.97;1782414;80;21323;-67
2020/12/21 04:36:52;;;;;;;46.40;23.20;;;;;;;3.85;83.25;101243.75;1782366;80;21367;-66
2020/12/21 04:39:21;;;;;;;47.95;24.60;;;;;;;3.86;83.15;101242.00;1782606;79;21207;-67
2020/12/21 04:41:56;;;;;;;43.65;24.20;;;;;;;3.80;83.21;101237.95;1803772;79;21113;-67
2020/12/21 04:44:23;;;;;;;49.18;23.65;;;;;;;3.81;83.18;101239.66;1808784;79;22427;-67
2020/12/21 04:46:55;;;;;;;49.73;23.95;;;;;;;3.79;83.22;101240.18;1808620;79;21176;-66
2020/12/21 04:49:22;;;;;;;44.55;23.87;;;;;;;3.78;83.48;101235.91;1795912;79;21518;-67
2020/12/21 04:51:49;;;;;;;53.45;24.98;;;;;;;3.77;83.62;101234.20;1792220;79;21501;-66
2020/12/21 04:54:16;;;;;;;50.80;24.92;;;;;;;3.81;83.61;101237.04;1777418;78;21165;-66
2020/12/21 04:56:42;;;;;;;47.10;25.68;;;;;;;3.86;83.50;101227.16;1770786;81;21789;-66
2020/12/21 04:59:09;;;;;;;48.68;24.70;;;;;;;3.89;83.38;101237.44;1770477;79;25384;-67
2020/12/21 05:01:35;;;;;;;49.83;24.12;;;;;;;3.93;83.38;101237.66;1759181;80;21195;-66
2020/12/21 05:04:01;;;;;;;46.18;25.92;;;;;;;3.97;83.26;101234.88;1777998;79;28336;-66
2020/12/21 05:06:27;;;;;;;49.18;26.25;;;;;;;3.97;83.20;101233.09;1776198;79;21537;-66
2020/12/21 05:09:07;;;;;;;54.53;27.10;;;;;;;3.85;83.74;101239.84;1792553;78;21113;-66
2020/12/21 05:11:34;;;;;;;54.80;26.35;;;;;;;3.74;84.00;101239.16;1785955;79;21163;-67
2020/12/21 05:14:09;;;;;;;55.63;26.93;;;;;;;3.68;84.27;101236.02;1800853;79;21610;-67
2020/12/21 05:16:35;;;;;;;52.90;26.82;;;;;;;3.58;84.77;101230.00;1807785;79;21144;-66
2020/12/21 05:19:00;;;;;;;50.17;26.95;;;;;;;3.67;84.79;101231.75;1794952;79;27457;-67
2020/12/21 05:21:27;;;;;;;57.88;28.05;;;;;;;3.71;84.65;101229.32;1786937;80;21978;-67
2020/12/21 05:23:58;;;;;;;52.23;26.25;;;;;;;3.76;84.47;101233.85;1787023;80;21144;-67
2020/12/21 05:26:29;;;;;;;52.62;27.58;;;;;;;3.84;84.36;101230.34;1786897;80;21120;-67
2020/12/21 05:28:55;;;;;;;58.73;27.02;;;;;;;3.87;84.16;101226.24;1790076;79;21180;-67
2020/12/21 05:31:20;;;;;;;58.68;27.65;;;;;;;3.82;84.14;101233.48;1776547;80;26640;-67
2020/12/21 05:33:46;;;;;;;56.95;27.82;;;;;;;3.86;84.15;101227.16;1776297;79;21379;-67
2020/12/21 05:36:18;;;;;;;54.93;27.30;;;;;;;3.82;84.14;101226.95;1789212;79;21117;-67
2020/12/21 05:38:56;;;;;;;59.95;29.35;;;;;;;3.86;84.04;101228.95;1777462;80;21149;-67
2020/12/21 05:41:22;;;;;;;58.65;29.30;;;;;;;3.84;84.21;101231.64;1782279;80;21199;-66
2020/12/21 05:43:49;;;;;;;54.90;28.73;;;;;;;3.89;84.11;101234.83;1804702;79;26701;-66
2020/12/21 05:46:18;;;;;;;62.48;27.45;;;;;;;3.92;84.14;101226.81;1808332;79;21333;-65
2020/12/21 05:48:49;;;;;;;57.95;29.98;;;;;;;3.95;83.98;101231.88;1806125;79;21528;-66
2020/12/21 05:51:36;;;;;;;61.83;29.32;;;;;;;3.94;83.95;101221.50;1805708;79;21180;-66
2020/12/21 05:54:04;;;;;;;60.55;30.50;;;;;;;3.91;84.02;101225.12;1791778;79;21222;-66
2020/12/21 05:56:33;;;;;;;59.83;29.10;;;;;;;3.87;84.05;101222.77;1782358;80;21167;-66
2020/12/21 05:58:59;;;;;;;62.38;29.27;;;;;;;3.89;83.99;101230.91;1798416;79;21128;-66
2020/12/21 06:01:25;;;;;;;64.73;31.60;;;;;;;3.87;84.05;101227.55;1805266;78;25893;-66
2020/12/21 06:04:00;;;;;;;63.25;30.48;;;;;;;3.81;84.22;101233.12;1793153;78;21068;-66
2020/12/21 06:06:28;;;;;;;62.03;31.75;;;;;;;3.81;84.42;101231.81;1791306;79;21188;-66
2020/12/21 06:08:59;;;;;;;62.35;30.80;;;;;;;3.84;84.28;101235.56;1792207;79;21150;-66
2020/12/21 06:11:34;;;;;;;66.82;30.05;;;;;;;3.86;84.19;101232.39;1758666;81;21532;-66
2020/12/21 06:14:06;;;;;;;65.22;31.85;;;;;;;3.81;84.29;101227.89;1758771;81;21076;-66
2020/12/21 06:16:35;;;;;;;68.05;32.55;;;;;;;3.85;84.34;101228.55;1781560;79;21180;-66
2020/12/21 06:19:11;;;;;;;65.90;32.60;;;;;;;3.88;84.34;101237.53;1803623;78;21149;-66
2020/12/21 06:21:53;;;;;;;66.35;30.27;;;;;;;3.87;84.24;101236.70;1786948;79;21072;-67
2020/12/21 06:24:24;;;;;;;60.63;31.33;;;;;;;3.89;84.09;101232.22;1785341;78;21680;-66
2020/12/21 06:26:50;;;;;;;67.55;32.45;;;;;;;3.88;84.08;101230.52;1793497;79;21181;-67
2020/12/21 06:29:21;;;;;;;67.95;32.13;;;;;;;3.87;84.10;101234.08;1789965;79;21963;-67
2020/12/21 06:31:54;;;;;;;67.65;33.18;;;;;;;3.86;84.43;101237.61;1799305;78;21314;-66
2020/12/21 06:34:36;;;;;;;69.92;33.38;;;;;;;3.85;84.23;101237.22;1777556;79;21163;-67
2020/12/21 06:37:11;;;;;;;65.67;32.65;;;;;;;3.83;84.15;101240.40;1798828;79;21645;-67
2020/12/21 06:39:37;;;;;;;66.40;31.57;;;;;;;3.80;84.04;101239.27;1777134;79;21101;-68
2020/12/21 06:42:13;;;;;;;68.80;33.88;;;;;;;3.87;84.15;101231.47;1809550;79;21200;-68
2020/12/21 06:44:40;;;;;;;64.15;30.62;;;;;;;3.93;83.95;101236.35;1797991;79;21136;-69
2020/12/21 06:47:10;;;;;;;71.30;33.33;;;;;;;3.91;83.94;101234.27;1798346;78;21204;-70
2020/12/21 06:49:36;;;;;;;66.28;33.83;;;;;;;3.96;83.74;101241.84;1793317;78;21826;-70
2020/12/21 06:52:02;;;;;;;65.42;31.33;;;;;;;3.99;83.68;101247.37;1789192;79;21167;-69
2020/12/21 06:54:28;;;;;;;57.48;30.90;;;;;;;3.92;83.42;101233.83;1796918;78;24585;-68
2020/12/21 06:56:54;;;;;;;66.57;30.77;;;;;;;3.91;83.62;101247.33;1803480;79;28335;-67
2020/12/21 06:59:22;;;;;;;61.85;33.18;;;;;;;3.90;83.72;101252.20;1792858;79;26745;-66
2020/12/21 07:01:50;;;;;;;70.92;33.23;;;;;;;3.95;84.04;101254.56;1783177;78;21380;-67
2020/12/21 07:04:17;;;;;;;63.00;31.77;;;;;;;3.99;83.84;101252.61;1780963;79;21237;-67
2020/12/21 07:06:44;;;;;;;60.48;31.95;;;;;;;4.04;83.67;101247.51;1792032;79;21238;-68
2020/12/21 07:09:16;;;;;;;65.87;29.32;;;;;;;3.95;83.45;101251.95;1793238;79;21213;-68
2020/12/21 07:11:42;;;;;;;63.15;33.30;;;;;;;3.93;83.46;101250.73;1777296;79;21160;-66
2020/12/21 07:14:11;;;;;;;65.62;32.38;;;;;;;3.95;83.60;101250.16;1788964;79;21403;-66
2020/12/21 07:16:37;;;;;;;63.92;31.17;;;;;;;4.05;83.42;101248.34;1764721;79;21176;-66
2020/12/21 07:19:03;;;;;;;59.93;32.10;;;;;;;4.04;83.11;101247.95;1778589;79;25470;-66
2020/12/21 07:21:50;;;;;;;67.40;33.42;;;;;;;4.01;83.06;101254.22;1779815;79;28818;-67
2020/12/21 07:24:16;;;;;;;66.00;33.00;;;;;;;4.02;83.12;101252.44;1721948;81;21134;-66
2020/12/21 07:26:42;;;;;;;72.32;33.75;;;;;;;4.03;83.10;101258.05;1736196;81;21801;-67
2020/12/21 07:29:07;;;;;;;67.72;32.33;;;;;;;4.06;83.12;101253.95;1730809;81;26842;-67
2020/12/21 07:31:33;;;;;;;66.33;33.87;;;;;;;4.06;83.67;101249.56;1738768;81;25796;-67
2020/12/21 07:34:00;;;;;;;69.10;36.28;;;;;;;4.07;83.17;101246.03;1733377;81;28371;-67
2020/12/21 07:36:28;;;;;;;71.85;32.23;;;;;;;4.01;83.16;101248.98;1741958;81;21605;-67
2020/12/21 07:39:11;;;;;;;;;;;;;;;3.99;83.00;101249.99;1721568;81;21531;-66
2020/12/21 07:41:43;;;;;;;64.97;30.20;;;;;;;4.00;83.08;101251.69;1699487;81;20242;-66
2020/12/21 07:44:16;;;;;;;62.78;30.20;;;;;;;3.92;83.15;101252.95;1722338;81;21190;-66
2020/12/21 07:46:55;;;;;;;61.77;32.28;;;;;;;3.88;83.36;101254.03;1720068;81;21123;-67
2020/12/21 07:49:20;;;;;;;70.55;33.55;;;;;;;3.98;83.27;101259.62;1723663;81;21221;-67
2020/12/21 07:51:46;;;;;;;64.32;31.73;;;;;;;3.98;83.22;101257.00;1717533;81;22424;-67
2020/12/21 07:54:13;;;;;;;66.87;31.97;;;;;;;3.95;83.30;101255.39;1721010;81;27921;-66
2020/12/21 07:56:42;;;;;;;71.35;31.42;;;;;;;3.99;83.45;101247.37;1726517;81;21211;-67
2020/12/21 07:59:16;;;;;;;66.47;33.95;;;;;;;4.07;83.29;101246.03;1719742;81;21241;-67
2020/12/21 08:01:42;;;;;;;68.80;32.55;;;;;;;4.04;82.97;101246.20;1722701;81;21168;-67
2020/12/21 08:04:15;;;;;;;66.72;34.70;;;;;;;4.01;83.11;101248.13;1719144;81;21253;-68
2020/12/21 08:06:41;;;;;;;70.57;32.98;;;;;;;4.04;83.12;101249.26;1732312;81;21252;-67
2020/12/21 08:09:08;;;;;;;70.13;35.03;;;;;;;4.07;82.88;101251.25;1720235;81;24817;-67
2020/12/21 08:11:33;;;;;;;72.47;35.70;;;;;;;4.11;82.80;101251.44;1719065;81;21276;-67
2020/12/21 08:14:00;;;;;;;67.87;33.83;;;;;;;4.13;82.65;101240.89;1727791;81;27168;-64
2020/12/21 08:16:26;;;;;;;67.80;32.77;;;;;;;4.14;82.70;101246.52;1731633;81;21576;-66
2020/12/21 08:18:52;;;;;;;63.97;34.33;;;;;;;4.16;82.63;101247.73;1727284;81;25580;-66
2020/12/21 08:21:23;;;;;;;74.30;34.43;;;;;;;4.17;82.60;101251.56;1729103;81;21224;-66
2020/12/21 08:23:58;;;;;;;65.80;34.13;;;;;;;4.17;82.76;101252.04;1716780;81;21763;-65
2020/12/21 08:26:27;;;;;;;77.30;33.88;;;;;;;4.17;82.67;101255.48;1724782;81;21649;-65
2020/12/21 08:28:54;;;;;;;63.28;33.65;;;;;;;4.13;82.62;101252.66;1715596;81;21220;-66
2020/12/21 08:31:23;;;;;;;75.60;34.20;;;;;;;4.17;82.54;101255.48;1727537;81;21552;-66
2020/12/21 08:34:06;;;;;;;69.70;34.05;;;;;;;4.18;82.47;101256.31;1726867;80;21196;-65
2020/12/21 08:36:39;;;;;;;65.70;33.40;;;;;;;4.10;82.46;101253.70;1718356;81;21158;-65
2020/12/21 08:39:15;;;;;;;68.07;35.88;;;;;;;4.09;82.66;101252.00;1722054;81;21163;-66
2020/12/21 08:41:54;;;;;;;69.92;33.00;;;;;;;4.08;82.53;101253.39;1730893;81;21910;-65
2020/12/21 08:44:24;;;;;;;68.72;35.17;;;;;;;4.06;82.72;101253.48;1726716;81;21192;-66
2020/12/21 08:46:56;;;;;;;74.03;34.43;;;;;;;4.10;82.76;101258.06;1728817;81;21276;-67
2020/12/21 08:49:22;;;;;;;63.28;34.95;;;;;;;4.07;82.74;101256.92;1729820;81;21623;-66
2020/12/21 08:51:48;;;;;;;71.42;33.65;;;;;;;4.14;82.80;101255.19;1731617;81;21192;-68
2020/12/21 08:54:14;;;;;;;65.92;35.60;;;;;;;4.19;82.60;101252.78;1720156;81;21222;-69
2020/12/21 08:56:57;;;;;;;72.15;35.43;;;;;;;4.13;82.46;101256.58;1723068;81;21184;-68
2020/12/21 08:59:19;;;;;;;71.60;35.63;;;;;;;4.10;82.55;101252.83;1732374;80;21185;-68
2020/12/21 09:01:45;;;;;;;71.97;36.63;;;;;;;4.21;82.53;101249.16;1723778;81;28348;-68
2020/12/21 09:04:11;;;;;;;70.67;34.18;;;;;;;4.22;82.40;101246.91;1682520;81;21259;-68
2020/12/21 09:06:37;;;;;;;64.42;35.95;;;;;;;4.25;82.20;101245.90;1731068;80;21200;-68
2020/12/21 09:09:07;;;;;;;67.75;33.30;;;;;;;4.31;82.06;101241.15;1718586;82;27138;-68
2020/12/21 09:11:33;;;;;;;65.95;34.65;;;;;;;4.34;81.85;101236.69;1729863;81;21625;-68
2020/12/21 09:13:59;;;;;;;69.05;36.13;;;;;;;4.37;81.78;101241.75;1730285;81;21208;-66
2020/12/21 09:16:27;;;;;;;70.17;33.05;;;;;;;4.31;81.75;101237.23;1723582;81;26810;-69
2020/12/21 09:18:54;;;;;;;68.02;36.45;;;;;;;4.30;81.73;101240.80;1715967;81;21240;-68
2020/12/21 09:21:30;;;;;;;74.87;34.88;;;;;;;4.21;82.26;101238.70;1726289;81;21451;-68
2020/12/21 09:23:58;;;;;;;68.12;36.73;;;;;;;4.16;82.39;101238.11;1668174;84;21225;-69
2020/12/21 09:26:24;;;;;;;68.83;37.17;;;;;;;4.25;82.45;101241.50;1720387;81;21268;-68
2020/12/21 09:28:54;;;;;;;74.07;35.15;;;;;;;4.24;82.33;101237.67;1729950;81;21209;-68
2020/12/21 09:31:21;;;;;;;67.55;35.85;;;;;;;4.28;82.37;101236.09;1724448;81;21212;-67
2020/12/21 09:33:47;;;;;;;72.65;34.80;;;;;;;4.30;82.22;101234.26;1720610;81;21640;-67
2020/12/21 09:36:14;;;;;;;63.58;34.70;;;;;;;4.35;82.02;101238.36;1726533;81;21631;-67
2020/12/21 09:38:40;;;;;;;67.67;31.90;;;;;;;4.41;81.96;101230.16;1727629;81;21683;-67
2020/12/21 09:41:06;;;;;;;60.63;31.48;;;;;;;4.35;81.52;101225.28;1725051;81;27771;-67
2020/12/21 09:43:32;;;;;;;61.90;33.70;;;;;;;4.33;81.51;101215.39;1734890;80;21917;-69
2020/12/21 09:45:58;;;;;;;69.27;34.08;;;;;;;4.34;81.57;101210.55;1733855;81;22166;-66
2020/12/21 09:48:24;;;;;;;60.55;32.95;;;;;;;4.40;81.68;101215.42;1730635;81;25309;-67
2020/12/21 09:50:50;;;;;;;63.05;33.33;;;;;;;4.43;81.60;101214.77;1719997;81;28476;-66
2020/12/21 09:53:16;;;;;;;68.60;34.00;;;;;;;4.47;81.58;101216.72;1726597;81;26703;-67
2020/12/21 09:55:44;;;;;;;63.17;34.45;;;;;;;4.52;81.53;101210.74;1730996;80;21406;-67
2020/12/21 09:58:10;;;;;;;61.25;35.13;;;;;;;4.45;81.43;101205.04;1736431;80;21216;-67
2020/12/21 10:00:35;;;;;;;59.27;32.30;;;;;;;4.49;81.50;101204.41;1731036;80;24342;-67
2020/12/21 10:03:01;;;;;;;64.25;33.65;;;;;;;4.49;81.41;101197.88;1732435;80;28356;-66
2020/12/21 10:05:27;;;;;;;63.90;33.70;;;;;;;4.56;81.37;101199.17;1737455;80;26797;-66
2020/12/21 10:07:52;;;;;;;62.85;33.50;;;;;;;4.58;81.30;101198.61;1721812;81;21975;-68
2020/12/21 10:10:18;;;;;;;59.20;32.90;;;;;;;4.63;81.29;101201.81;1727984;81;27149;-67
2020/12/21 10:12:44;;;;;;;65.40;33.30;;;;;;;4.64;81.20;101194.31;1723138;81;23880;-67
2020/12/21 10:15:10;;;;;;;62.62;33.45;;;;;;;4.66;81.03;101191.61;1727582;81;28425;-67
2020/12/21 10:17:35;;;;;;;57.53;32.53;;;;;;;4.64;81.22;101185.16;1721084;81;26613;-68
2020/12/21 10:20:02;;;;;;;59.70;32.93;;;;;;;4.63;81.05;101197.89;1724576;80;21829;-68
2020/12/21 10:22:28;;;;;;;64.53;32.10;;;;;;;4.67;81.26;101187.59;1732776;80;21607;-68
2020/12/21 10:24:53;;;;;;;59.57;31.63;;;;;;;4.72;81.08;101187.31;1725999;81;25210;-66
2020/12/21 10:27:19;;;;;;;61.60;32.28;;;;;;;4.75;80.93;101184.99;1742600;80;28985;-68
2020/12/21 10:29:45;;;;;;;55.50;30.80;;;;;;;4.71;80.85;101186.10;1735488;81;27158;-67
2020/12/21 10:32:11;;;;;;;62.35;31.17;;;;;;;4.82;80.96;101175.84;1742617;80;22554;-68
2020/12/21 10:34:36;;;;;;;57.75;31.37;;;;;;;4.88;80.78;101178.53;1738375;81;27463;-68
2020/12/21 10:37:02;;;;;;;57.55;31.62;;;;;;;4.91;80.57;101179.66;1730461;80;25728;-69
2020/12/21 10:39:28;;;;;;;54.80;30.27;;;;;;;4.93;80.28;101177.81;1731049;81;28383;-67
2020/12/21 10:41:54;;;;;;;53.75;29.52;;;;;;;4.92;80.21;101173.50;1736952;81;26768;-66
2020/12/21 10:44:19;;;;;;;56.45;29.92;;;;;;;4.92;80.30;101170.41;1733736;81;21938;-66
2020/12/21 10:46:45;;;;;;;53.70;31.45;;;;;;;4.88;80.07;101172.85;1732079;81;27045;-69
2020/12/21 10:49:11;;;;;;;54.27;29.82;;;;;;;4.90;80.38;101170.14;1735177;81;24685;-66
2020/12/21 10:51:37;;;;;;;58.08;31.75;;;;;;;4.86;80.31;101166.85;1724672;81;28406;-66
2020/12/21 10:54:03;;;;;;;56.98;30.10;;;;;;;4.83;80.67;101161.80;1740189;80;21244;-67
2020/12/21 10:56:29;;;;;;;52.00;29.65;;;;;;;4.88;80.75;101161.08;1726708;81;21175;-67
2020/12/21 10:58:55;;;;;;;52.78;28.55;;;;;;;4.94;80.46;101163.32;1733047;81;27066;-67
2020/12/21 11:01:21;;;;;;;51.70;29.07;;;;;;;4.94;80.22;101162.01;1733480;81;21716;-68
2020/12/21 11:03:47;;;;;;;56.28;30.43;;;;;;;4.96;80.13;101160.61;1734229;81;21212;-67
2020/12/21 11:06:21;;;;;;;55.38;30.27;;;;;;;4.97;80.12;101157.89;1738766;80;26737;-66
2020/12/21 11:08:46;;;;;;;53.55;29.67;;;;;;;4.99;80.21;101149.95;1740073;80;21141;-69
2020/12/21 11:11:12;;;;;;;53.50;30.10;;;;;;;5.01;80.18;101150.20;1739936;80;27026;-69
2020/12/21 11:13:41;;;;;;;53.40;30.03;;;;;;;5.08;80.05;101148.52;1733651;81;24265;-68
2020/12/21 11:16:05;;;;;;;;;;;;;;;5.12;79.70;101148.70;1739950;81;21236;-67
2020/12/21 11:18:31;;;;;;;49.45;28.25;;;;;;;5.11;79.56;101151.80;1693620;81;20202;-69